sensor_id;sensor_type;location;lat;lon;timestamp;temperature;humidity
30467;DHT22;17258;52.560;13.046;2023-09-08T00:09:39;21.60;48.00
30467;DHT22;17258;52.560;13.046;2023-09-08T00:19:46;21.50;48.20
30467;DHT22;17258;52.560;13.046;2023-09-08T00:29:47;21.40;48.70
30467;DHT22;17258;52.560;13.046;2023-09-08T00:39:48;21.30;48.50
30467;DHT22;17258;52.560;13.046;2023-09-08T00:49:48;21.20;48.60
30467;DHT22;17258;52.560;13.046;2023-09-08T00:59:52;21.10;48.80
30467;DHT22;17258;52.560;13.046;2023-09-08T01:09:54;20.90;48.90
30467;DHT22;17258;52.560;13.046;2023-09-08T01:19:56;20.80;49.00
30467;DHT22;17258;52.560;13.046;2023-09-08T01:29:59;20.70;49.10
30467;DHT22;17258;52.560;13.046;2023-09-08T01:40:00;20.60;49.40
30467;DHT22;17258;52.560;13.046;2023-09-08T01:50:01;20.50;49.40
30467;DHT22;17258;52.560;13.046;2023-09-08T02:00:02;20.50;49.60
30467;DHT22;17258;52.560;13.046;2023-09-08T02:10:03;20.40;49.60
30467;DHT22;17258;52.560;13.046;2023-09-08T02:20:04;20.30;49.80
30467;DHT22;17258;52.560;13.046;2023-09-08T02:30:06;20.30;49.90
30467;DHT22;17258;52.560;13.046;2023-09-08T02:40:07;20.20;50.10
30467;DHT22;17258;52.560;13.046;2023-09-08T02:50:08;20.10;50.30
30467;DHT22;17258;52.560;13.046;2023-09-08T03:00:15;20.10;50.40
30467;DHT22;17258;52.560;13.046;2023-09-08T03:10:19;20.00;50.50
30467;DHT22;17258;52.560;13.046;2023-09-08T03:20:19;19.90;50.90
30467;DHT22;17258;52.560;13.046;2023-09-08T03:30:20;19.90;50.90
30467;DHT22;17258;52.560;13.046;2023-09-08T03:40:25;19.90;51.10
30467;DHT22;17258;52.560;13.046;2023-09-08T03:50:25;19.80;51.10
30467;DHT22;17258;52.560;13.046;2023-09-08T04:00:26;19.80;51.20
30467;DHT22;17258;52.560;13.046;2023-09-08T04:10:30;19.80;51.30
30467;DHT22;17258;52.560;13.046;2023-09-08T04:20:36;19.80;51.60
30467;DHT22;17258;52.560;13.046;2023-09-08T04:30:37;19.80;51.40
30467;DHT22;17258;52.560;13.046;2023-09-08T04:40:40;19.70;51.50
30467;DHT22;17258;52.560;13.046;2023-09-08T04:50:45;19.70;51.80
30467;DHT22;17258;52.560;13.046;2023-09-08T05:00:45;19.60;51.70
30467;DHT22;17258;52.560;13.046;2023-09-08T05:10:49;19.60;51.80
30467;DHT22;17258;52.560;13.046;2023-09-08T05:20:49;19.60;52.00
30467;DHT22;17258;52.560;13.046;2023-09-08T05:30:56;19.50;52.10
30467;DHT22;17258;52.560;13.046;2023-09-08T05:40:57;19.60;52.70
30467;DHT22;17258;52.560;13.046;2023-09-08T05:51:04;19.60;52.60
30467;DHT22;17258;52.560;13.046;2023-09-08T06:01:15;19.70;52.80
30467;DHT22;17258;52.560;13.046;2023-09-08T06:11:22;19.90;53.20
30467;DHT22;17258;52.560;13.046;2023-09-08T06:21:23;20.10;53.50
30467;DHT22;17258;52.560;13.046;2023-09-08T06:31:27;20.20;53.60
30467;DHT22;17258;52.560;13.046;2023-09-08T06:41:38;20.60;54.10
30467;DHT22;17258;52.560;13.046;2023-09-08T06:51:41;20.80;54.30
30467;DHT22;17258;52.560;13.046;2023-09-08T07:01:49;21.10;54.60
30467;DHT22;17258;52.560;13.046;2023-09-08T07:11:58;21.50;54.70
30467;DHT22;17258;52.560;13.046;2023-09-08T07:21:59;21.90;54.90
30467;DHT22;17258;52.560;13.046;2023-09-08T07:32:07;22.30;54.70
30467;DHT22;17258;52.560;13.046;2023-09-08T07:42:14;22.70;54.50
30467;DHT22;17258;52.560;13.046;2023-09-08T07:52:15;23.10;54.60
30467;DHT22;17258;52.560;13.046;2023-09-08T08:02:16;23.40;54.30
30467;DHT22;17258;52.560;13.046;2023-09-08T08:12:19;23.80;54.20
30467;DHT22;17258;52.560;13.046;2023-09-08T08:22:20;24.20;54.20
30467;DHT22;17258;52.560;13.046;2023-09-08T08:32:22;24.50;53.90
30467;DHT22;17258;52.560;13.046;2023-09-08T08:42:23;25.00;53.60
30467;DHT22;17258;52.560;13.046;2023-09-08T08:52:25;25.30;53.40
30467;DHT22;17258;52.560;13.046;2023-09-08T09:02:28;25.60;53.20
30467;DHT22;17258;52.560;13.046;2023-09-08T09:12:31;26.00;53.00
30467;DHT22;17258;52.560;13.046;2023-09-08T09:22:36;26.20;52.80
30467;DHT22;17258;52.560;13.046;2023-09-08T09:32:38;26.50;52.60
30467;DHT22;17258;52.560;13.046;2023-09-08T09:42:39;26.80;52.40
30467;DHT22;17258;52.560;13.046;2023-09-08T09:52:43;27.10;52.40
30467;DHT22;17258;52.560;13.046;2023-09-08T10:02:49;27.40;52.00
30467;DHT22;17258;52.560;13.046;2023-09-08T10:13:02;27.70;51.70
30467;DHT22;17258;52.560;13.046;2023-09-08T10:23:15;28.00;51.20
30467;DHT22;17258;52.560;13.046;2023-09-08T10:33:22;28.30;51.10
30467;DHT22;17258;52.560;13.046;2023-09-08T10:43:24;28.60;50.90
30467;DHT22;17258;52.560;13.046;2023-09-08T10:53:37;28.90;50.80
30467;DHT22;17258;52.560;13.046;2023-09-08T11:13:41;29.50;50.30
30467;DHT22;17258;52.560;13.046;2023-09-08T11:23:48;29.80;49.60
30467;DHT22;17258;52.560;13.046;2023-09-08T11:33:48;30.10;49.60
30467;DHT22;17258;52.560;13.046;2023-09-08T11:43:52;30.60;49.30
30467;DHT22;17258;52.560;13.046;2023-09-08T11:53:56;31.00;48.90
30467;DHT22;17258;52.560;13.046;2023-09-08T12:03:57;31.60;49.20
30467;DHT22;17258;52.560;13.046;2023-09-08T12:14:01;32.20;48.60
30467;DHT22;17258;52.560;13.046;2023-09-08T12:24:06;32.90;47.70
30467;DHT22;17258;52.560;13.046;2023-09-08T12:34:07;33.50;47.20
30467;DHT22;17258;52.560;13.046;2023-09-08T12:44:09;34.10;46.80
30467;DHT22;17258;52.560;13.046;2023-09-08T12:54:10;34.60;45.90
30467;DHT22;17258;52.560;13.046;2023-09-08T13:04:19;35.10;45.50
30467;DHT22;17258;52.560;13.046;2023-09-08T13:14:32;35.50;44.50
30467;DHT22;17258;52.560;13.046;2023-09-08T13:24:36;35.80;44.00
30467;DHT22;17258;52.560;13.046;2023-09-08T13:34:37;36.10;43.20
30467;DHT22;17258;52.560;13.046;2023-09-08T13:44:38;36.20;42.50
30467;DHT22;17258;52.560;13.046;2023-09-08T13:54:39;36.30;42.20
30467;DHT22;17258;52.560;13.046;2023-09-08T14:04:41;36.30;41.70
30467;DHT22;17258;52.560;13.046;2023-09-08T14:14:42;36.20;40.90
30467;DHT22;17258;52.560;13.046;2023-09-08T14:24:49;36.10;41.10
30467;DHT22;17258;52.560;13.046;2023-09-08T14:34:52;35.90;41.00
30467;DHT22;17258;52.560;13.046;2023-09-08T14:44:56;35.70;40.70
30467;DHT22;17258;52.560;13.046;2023-09-08T14:54:59;35.50;40.30
30467;DHT22;17258;52.560;13.046;2023-09-08T15:05:00;35.20;40.60
30467;DHT22;17258;52.560;13.046;2023-09-08T15:15:04;35.00;40.50
30467;DHT22;17258;52.560;13.046;2023-09-08T15:25:05;34.90;40.70
30467;DHT22;17258;52.560;13.046;2023-09-08T15:35:07;34.90;40.70
30467;DHT22;17258;52.560;13.046;2023-09-08T15:45:08;34.90;40.70
30467;DHT22;17258;52.560;13.046;2023-09-08T15:55:14;34.90;40.40
30467;DHT22;17258;52.560;13.046;2023-09-08T16:05:20;35.00;39.90
30467;DHT22;17258;52.560;13.046;2023-09-08T16:15:25;34.80;39.60
30467;DHT22;17258;52.560;13.046;2023-09-08T16:25:26;34.50;39.50
30467;DHT22;17258;52.560;13.046;2023-09-08T16:35:26;34.20;39.60
30467;DHT22;17258;52.560;13.046;2023-09-08T16:45:29;33.90;40.00
30467;DHT22;17258;52.560;13.046;2023-09-08T16:55:42;33.60;40.30
30467;DHT22;17258;52.560;13.046;2023-09-08T17:05:43;33.30;40.00
30467;DHT22;17258;52.560;13.046;2023-09-08T17:15:47;32.90;40.30
30467;DHT22;17258;52.560;13.046;2023-09-08T17:25:48;32.50;40.50
30467;DHT22;17258;52.560;13.046;2023-09-08T17:35:52;32.00;40.60
30467;DHT22;17258;52.560;13.046;2023-09-08T17:45:53;31.60;40.80
30467;DHT22;17258;52.560;13.046;2023-09-08T17:55:54;31.20;40.90
30467;DHT22;17258;52.560;13.046;2023-09-08T18:05:54;30.80;41.20
30467;DHT22;17258;52.560;13.046;2023-09-08T18:15:59;30.30;41.30
30467;DHT22;17258;52.560;13.046;2023-09-08T18:26:00;29.90;41.60
30467;DHT22;17258;52.560;13.046;2023-09-08T18:36:00;29.40;41.80
30467;DHT22;17258;52.560;13.046;2023-09-08T18:46:01;29.00;42.20
30467;DHT22;17258;52.560;13.046;2023-09-08T18:56:02;28.70;42.40
30467;DHT22;17258;52.560;13.046;2023-09-08T19:06:04;28.30;42.80
30467;DHT22;17258;52.560;13.046;2023-09-08T19:16:04;27.90;43.10
30467;DHT22;17258;52.560;13.046;2023-09-08T19:26:06;27.60;43.30
30467;DHT22;17258;52.560;13.046;2023-09-08T19:36:09;27.20;43.50
30467;DHT22;17258;52.560;13.046;2023-09-08T19:46:13;26.90;43.70
30467;DHT22;17258;52.560;13.046;2023-09-08T19:56:13;26.50;44.00
30467;DHT22;17258;52.560;13.046;2023-09-08T20:06:15;26.30;44.30
30467;DHT22;17258;52.560;13.046;2023-09-08T20:16:15;26.00;44.50
30467;DHT22;17258;52.560;13.046;2023-09-08T20:26:16;25.70;44.70
30467;DHT22;17258;52.560;13.046;2023-09-08T20:36:17;25.40;44.90
30467;DHT22;17258;52.560;13.046;2023-09-08T20:46:18;25.20;45.00
30467;DHT22;17258;52.560;13.046;2023-09-08T20:56:18;25.00;45.20
30467;DHT22;17258;52.560;13.046;2023-09-08T21:06:22;24.80;45.50
30467;DHT22;17258;52.560;13.046;2023-09-08T21:16:22;24.60;45.70
30467;DHT22;17258;52.560;13.046;2023-09-08T21:26:26;24.40;45.80
30467;DHT22;17258;52.560;13.046;2023-09-08T21:36:26;24.20;46.30
30467;DHT22;17258;52.560;13.046;2023-09-08T21:46:28;24.00;46.50
30467;DHT22;17258;52.560;13.046;2023-09-08T21:56:28;23.90;46.60
30467;DHT22;17258;52.560;13.046;2023-09-08T22:06:29;23.70;46.80
30467;DHT22;17258;52.560;13.046;2023-09-08T22:16:30;23.60;47.00
30467;DHT22;17258;52.560;13.046;2023-09-08T22:26:30;23.40;47.10
30467;DHT22;17258;52.560;13.046;2023-09-08T22:36:34;23.30;47.30
30467;DHT22;17258;52.560;13.046;2023-09-08T22:46:35;23.10;47.40
30467;DHT22;17258;52.560;13.046;2023-09-08T22:56:35;23.00;47.70
30467;DHT22;17258;52.560;13.046;2023-09-08T23:06:36;22.80;47.80
30467;DHT22;17258;52.560;13.046;2023-09-08T23:16:37;22.70;47.90
30467;DHT22;17258;52.560;13.046;2023-09-08T23:26:37;22.60;48.10
30467;DHT22;17258;52.560;13.046;2023-09-08T23:36:41;22.50;48.30
30467;DHT22;17258;52.560;13.046;2023-09-08T23:46:42;22.40;48.70
30467;DHT22;17258;52.560;13.046;2023-09-08T23:56:43;22.30;48.70
